Time;durP1;ratioP1;P1;durP2;ratioP2;P2;SDS_P1;SDS_P2;PMS_P1;PMS_P2;Temp;Humidity;BMP_temperature;BMP_pressure;BME280_temperature;BME280_humidity;BME280_pressure;Samples;Min_cycle;Max_cycle;Signal;HPM_P1;HPM_P2
2024/03/05 00:01:59;;;;;;;33.65;17.65;;;;;;;5.38;100.00;101163.00;5259067;28;20441;-73
2024/03/05 00:04:32;;;;;;;33.47;17.38;;;;;;;5.43;100.00;101163.47;5254242;28;20020;-74
2024/03/05 00:07:02;;;;;;;43.90;21.50;;;;;;;5.48;100.00;101164.91;5254387;28;20496;-74
2024/03/05 00:09:34;;;;;;;40.38;19.13;;;;;;;5.52;100.00;101161.00;5256635;28;20016;-74
2024/03/05 00:12:04;;;;;;;37.90;19.45;;;;;;;5.55;100.00;101163.44;5250992;28;20030;-74
2024/03/05 00:14:35;;;;;;;32.92;16.38;;;;;;;5.56;100.00;101155.31;5253363;28;20024;-73
2024/03/05 00:17:05;;;;;;;30.25;16.40;;;;;;;5.57;100.00;101153.50;5251046;28;20432;-73
2024/03/05 00:19:36;;;;;;;35.03;17.20;;;;;;;5.59;100.00;101148.91;5251511;28;20103;-73
2024/03/05 00:22:07;;;;;;;31.17;16.02;;;;;;;5.61;100.00;101152.28;5261660;28;20035;-74
2024/03/05 00:24:37;;;;;;;36.45;18.20;;;;;;;5.65;100.00;101159.88;5245858;28;20032;-74
2024/03/05 00:27:09;;;;;;;31.90;17.48;;;;;;;5.69;100.00;101157.81;5252918;28;20107;-73
2024/03/05 00:29:41;;;;;;;38.05;18.42;;;;;;;5.70;100.00;101164.84;5252731;28;20029;-73
2024/03/05 00:32:11;;;;;;;35.03;19.17;;;;;;;5.74;100.00;101162.75;5255200;28;20474;-73
2024/03/05 00:34:42;;;;;;;36.90;19.63;;;;;;;5.79;100.00;101153.41;5252435;28;20043;-73
2024/03/05 00:37:12;;;;;;;44.20;19.95;;;;;;;5.82;100.00;101153.16;5251030;28;20039;-74
2024/03/05 00:39:43;;;;;;;36.15;19.77;;;;;;;5.83;100.00;101154.03;5268848;28;20564;-74
2024/03/05 00:42:13;;;;;;;35.92;20.05;;;;;;;5.80;100.00;101156.94;5255316;28;20032;-75
2024/03/05 00:44:44;;;;;;;35.35;18.90;;;;;;;5.75;100.00;101151.97;5254990;28;20112;-74
2024/03/05 00:47:14;;;;;;;37.47;19.05;;;;;;;5.72;100.00;101144.25;5253668;28;20028;-74
2024/03/05 00:49:45;;;;;;;37.72;18.63;;;;;;;5.70;100.00;101148.84;5252978;28;20021;-74
2024/03/05 00:52:15;;;;;;;42.05;19.52;;;;;;;5.68;100.00;101145.50;5250448;28;20022;-74
2024/03/05 00:54:46;;;;;;;35.72;19.05;;;;;;;5.64;100.00;101139.56;5255538;28;20039;-74
2024/03/05 00:57:16;;;;;;;40.20;20.88;;;;;;;5.59;100.00;101136.44;5246165;28;20036;-74
2024/03/05 00:59:47;;;;;;;36.45;20.30;;;;;;;5.60;100.00;101139.94;5261765;28;20024;-74
2024/03/05 01:02:17;;;;;;;35.38;18.83;;;;;;;5.49;100.00;101142.66;5255255;28;20024;-74
2024/03/05 01:04:47;;;;;;;36.67;18.33;;;;;;;5.35;100.00;101146.44;5254174;28;20336;-74
2024/03/05 01:07:18;;;;;;;36.50;17.15;;;;;;;5.22;100.00;101153.72;5254160;28;20032;-74
2024/03/05 01:09:49;;;;;;;30.48;15.98;;;;;;;5.02;100.00;101155.31;5260931;28;20367;-74
2024/03/05 01:12:19;;;;;;;35.55;17.80;;;;;;;4.90;100.00;101151.84;5257594;28;20039;-74
2024/03/05 01:14:50;;;;;;;32.47;16.90;;;;;;;4.78;100.00;101151.00;5258176;28;20086;-74
2024/03/05 01:17:20;;;;;;;31.08;16.60;;;;;;;4.79;100.00;101149.19;5254510;28;20681;-74
2024/03/05 01:19:51;;;;;;;36.55;18.20;;;;;;;4.84;100.00;101144.34;5258259;28;20029;-74
2024/03/05 01:22:21;;;;;;;42.00;21.70;;;;;;;4.79;100.00;101144.72;5259040;28;20115;-74
2024/03/05 01:24:52;;;;;;;45.72;21.73;;;;;;;4.83;100.00;101146.16;5255047;28;20032;-74
2024/03/05 01:27:24;;;;;;;44.45;22.58;;;;;;;4.86;100.00;101139.75;5253941;28;20443;-74
2024/03/05 01:29:55;;;;;;;40.85;21.17;;;;;;;4.85;100.00;101143.38;5253879;28;20028;-74
2024/03/05 01:32:28;;;;;;;42.60;23.17;;;;;;;4.80;100.00;101141.09;5254014;28;20040;-74
2024/03/05 01:34:58;;;;;;;49.28;22.80;;;;;;;4.78;100.00;101150.16;5258968;28;20032;-74
2024/03/05 01:37:29;;;;;;;49.38;22.55;;;;;;;4.77;100.00;101144.00;5252274;28;20090;-74
2024/03/05 01:39:59;;;;;;;45.50;23.08;;;;;;;4.76;100.00;101144.09;5257794;28;20107;-74
2024/03/05 01:42:31;;;;;;;45.13;20.35;;;;;;;4.73;100.00;101149.69;5254422;28;20700;-74
2024/03/05 01:45:01;;;;;;;43.60;22.25;;;;;;;4.69;100.00;101146.41;5254236;28;20509;-74
2024/03/05 01:47:32;;;;;;;50.40;24.20;;;;;;;4.67;100.00;101145.69;5251804;28;20095;-74
2024/03/05 01:50:04;;;;;;;40.03;22.30;;;;;;;4.65;100.00;101159.09;5251956;28;20024;-74
2024/03/05 01:52:36;;;;;;;41.97;20.88;;;;;;;4.64;100.00;101156.56;5254267;28;20047;-74
2024/03/05 01:55:12;;;;;;;43.72;21.60;;;;;;;4.63;100.00;101139.78;5257776;28;20012;-74
2024/03/05 01:57:46;;;;;;;39.65;19.48;;;;;;;4.66;100.00;101154.63;5251422;28;20074;-74
2024/03/05 02:00:20;;;;;;;43.03;21.08;;;;;;;4.67;100.00;101153.66;5254831;28;20036;-74
2024/03/05 02:02:50;;;;;;;43.97;22.77;;;;;;;4.72;100.00;101142.66;5250818;28;20051;-74
2024/03/05 02:05:22;;;;;;;39.53;20.77;;;;;;;4.78;100.00;101148.34;5254140;28;20029;-74
2024/03/05 02:07:53;;;;;;;42.38;21.35;;;;;;;4.84;100.00;101154.97;5259642;28;20423;-74
2024/03/05 02:10:24;;;;;;;43.55;21.50;;;;;;;4.89;100.00;101148.34;5252914;28;20123;-75
2024/03/05 02:12:54;;;;;;;39.15;20.95;;;;;;;4.92;100.00;101148.09;5261310;28;20081;-74
2024/03/05 02:15:25;;;;;;;41.63;21.15;;;;;;;4.99;100.00;101151.09;5253930;28;20031;-74
2024/03/05 02:17:56;;;;;;;45.65;20.90;;;;;;;5.04;100.00;101146.25;5254799;28;20039;-74
2024/03/05 02:20:27;;;;;;;45.55;22.48;;;;;;;5.09;100.00;101149.41;5252994;28;20020;-74
2024/03/05 02:22:57;;;;;;;40.53;20.85;;;;;;;5.13;100.00;101152.66;5254210;28;20059;-74
2024/03/05 02:25:31;;;;;;;36.90;20.20;;;;;;;5.15;100.00;101151.56;5251949;28;20063;-74
2024/03/05 02:28:02;;;;;;;36.58;18.85;;;;;;;5.11;100.00;101149.25;5257339;28;20332;-74
2024/03/05 02:30:33;;;;;;;35.13;19.58;;;;;;;5.07;100.00;101147.81;5253566;28;20052;-74
2024/03/05 02:33:24;;;;;;;37.47;20.45;;;;;;;5.00;100.00;101144.81;5264830;28;20093;-73
2024/03/05 02:36:08;;;;;;;39.28;20.52;;;;;;;4.97;100.00;101137.09;5253377;28;21158;-75
2024/03/05 02:38:39;;;;;;;41.33;20.98;;;;;;;4.97;100.00;101141.53;5253758;28;21359;-73
2024/03/05 02:41:10;;;;;;;40.50;21.92;;;;;;;5.01;100.00;101149.16;5254844;28;20039;-73
2024/03/05 02:43:41;;;;;;;44.88;22.63;;;;;;;5.07;100.00;101135.41;5253882;28;20020;-73
2024/03/05 02:46:13;;;;;;;36.38;19.08;;;;;;;5.13;100.00;101136.72;5253567;28;20088;-73
2024/03/05 02:48:43;;;;;;;42.03;20.60;;;;;;;5.17;100.00;101138.13;5251030;28;20025;-73
2024/03/05 02:51:14;;;;;;;42.88;22.85;;;;;;;5.22;100.00;101143.06;5253340;28;20397;-73
2024/03/05 02:53:46;;;;;;;42.45;21.40;;;;;;;5.26;100.00;101132.06;5251813;28;20038;-73
2024/03/05 02:56:16;;;;;;;40.25;19.83;;;;;;;5.31;100.00;101132.53;5256172;28;20028;-75
2024/03/05 02:58:47;;;;;;;37.88;19.98;;;;;;;5.35;100.00;101135.78;5250065;28;20035;-74
2024/03/05 03:01:19;;;;;;;42.60;20.58;;;;;;;5.39;100.00;101131.91;5252908;28;20405;-73
2024/03/05 03:03:55;;;;;;;34.88;19.75;;;;;;;5.43;100.00;101128.88;5251580;28;20036;-73
2024/03/05 03:06:26;;;;;;;48.92;23.33;;;;;;;5.47;100.00;101129.44;5252116;28;20073;-75
2024/03/05 03:08:56;;;;;;;37.63;19.42;;;;;;;5.50;100.00;101134.53;5255037;28;20016;-73
2024/03/05 03:11:31;;;;;;;36.30;18.45;;;;;;;5.54;100.00;101132.47;5251785;28;20028;-73
2024/03/05 03:14:03;;;;;;;37.85;20.35;;;;;;;5.57;100.00;101140.19;5253575;28;20046;-73
2024/03/05 03:16:34;;;;;;;36.80;20.50;;;;;;;5.56;100.00;101138.50;5254021;28;20059;-73
2024/03/05 03:19:12;;;;;;;34.58;19.10;;;;;;;5.59;100.00;101144.44;5243776;28;20046;-73
2024/03/05 03:21:44;;;;;;;36.90;19.27;;;;;;;5.62;100.00;101144.19;5251715;28;20537;-73
2024/03/05 03:24:14;;;;;;;41.25;21.42;;;;;;;5.67;100.00;101149.09;5251247;28;20020;-73
2024/03/05 03:26:45;;;;;;;44.33;22.05;;;;;;;5.69;100.00;101152.50;5253357;28;20028;-73
2024/03/05 03:29:16;;;;;;;38.58;19.20;;;;;;;5.66;100.00;101155.41;5255664;28;20089;-73
2024/03/05 03:31:46;;;;;;;36.92;21.52;;;;;;;5.67;100.00;101155.28;5251597;28;20025;-73
2024/03/05 03:34:17;;;;;;;42.15;21.15;;;;;;;5.68;100.00;101154.31;5256211;28;20028;-73
2024/03/05 03:36:48;;;;;;;42.03;21.20;;;;;;;5.72;100.00;101152.22;5251310;28;20020;-73
2024/03/05 03:39:24;;;;;;;39.38;20.58;;;;;;;5.70;100.00;101163.00;5253779;28;20039;-73
2024/03/05 03:41:55;;;;;;;37.00;20.30;;;;;;;5.70;100.00;101163.00;5255876;28;20032;-73
2024/03/05 03:44:26;;;;;;;37.08;20.30;;;;;;;5.74;100.00;101158.28;5253331;28;20089;-73
2024/03/05 03:46:57;;;;;;;39.17;21.20;;;;;;;5.76;100.00;101159.00;5258366;28;20078;-73
2024/03/05 03:49:27;;;;;;;43.17;22.08;;;;;;;5.79;100.00;101166.72;5245303;28;20051;-73
2024/03/05 03:51:58;;;;;;;42.35;21.13;;;;;;;5.82;100.00;101162.97;5252248;28;20081;-73
2024/03/05 03:54:29;;;;;;;39.05;22.08;;;;;;;5.82;100.00;101161.13;5252650;28;20111;-73
2024/03/05 03:56:59;;;;;;;38.38;20.35;;;;;;;5.83;100.00;101165.50;5252973;28;20477;-73
2024/03/05 03:59:30;;;;;;;42.90;21.83;;;;;;;5.86;100.00;101161.72;5252457;28;20036;-73
2024/03/05 04:02:00;;;;;;;42.63;23.05;;;;;;;5.88;100.00;101165.97;5251306;28;20017;-73
2024/03/05 04:04:31;;;;;;;43.90;22.15;;;;;;;5.88;100.00;101160.66;5251497;28;20111;-73
2024/03/05 04:07:01;;;;;;;40.55;22.10;;;;;;;5.88;100.00;101167.78;5254203;28;20020;-73
2024/03/05 04:09:32;;;;;;;43.65;23.23;;;;;;;5.91;100.00;101168.41;5254018;28;20027;-73
2024/03/05 04:12:02;;;;;;;36.97;20.48;;;;;;;5.92;100.00;101166.56;5253885;28;20493;-73
2024/03/05 04:14:33;;;;;;;39.40;21.38;;;;;;;5.93;100.00;101173.63;5253168;28;20553;-73
2024/03/05 04:17:04;;;;;;;43.70;23.38;;;;;;;5.91;100.00;101171.06;5260196;28;20538;-73
2024/03/05 04:19:35;;;;;;;45.13;23.35;;;;;;;5.94;100.00;101173.47;5248453;28;20132;-73
2024/03/05 04:22:06;;;;;;;39.08;23.17;;;;;;;5.97;100.00;101172.34;5246514;28;20016;-73
2024/03/05 04:24:37;;;;;;;41.85;21.38;;;;;;;5.99;100.00;101180.25;5250459;28;20390;-73
2024/03/05 04:27:11;;;;;;;36.47;20.65;;;;;;;6.04;100.00;101178.03;5253783;28;20027;-73
2024/03/05 04:29:47;;;;;;;44.30;22.77;;;;;;;6.03;100.00;101182.53;5252707;28;20028;-73
2024/03/05 04:32:17;;;;;;;40.80;21.33;;;;;;;6.04;100.00;101184.22;5252507;28;20052;-73
2024/03/05 04:34:59;;;;;;;44.80;22.90;;;;;;;6.05;100.00;101185.03;5255577;28;20093;-73
2024/03/05 04:37:30;;;;;;;42.60;22.35;;;;;;;6.05;100.00;101193.88;5254807;28;20035;-73
2024/03/05 04:40:01;;;;;;;36.97;21.42;;;;;;;6.05;100.00;101201.88;5258484;28;20028;-73
2024/03/05 04:42:31;;;;;;;41.03;23.45;;;;;;;6.06;100.00;101200.03;5255681;28;20423;-73
2024/03/05 04:45:02;;;;;;;45.22;24.05;;;;;;;6.07;100.00;101196.41;5257992;28;20133;-73
2024/03/05 04:47:33;;;;;;;41.25;21.88;;;;;;;6.09;100.00;101197.13;5254677;28;20104;-73
2024/03/05 04:50:05;;;;;;;45.88;22.52;;;;;;;6.11;100.00;101197.84;5258298;28;20016;-73
2024/03/05 04:52:35;;;;;;;47.22;22.95;;;;;;;6.12;100.00;101199.53;5254832;28;20107;-73
2024/03/05 04:55:08;;;;;;;43.88;23.48;;;;;;;6.13;100.00;101199.41;5249001;28;20020;-74
2024/03/05 04:57:39;;;;;;;45.47;22.42;;;;;;;6.14;100.00;101202.94;5252791;28;20043;-73
2024/03/05 05:00:19;;;;;;;44.72;21.80;;;;;;;6.15;100.00;101200.13;5258922;28;20032;-73
2024/03/05 05:02:51;;;;;;;43.58;22.65;;;;;;;6.17;100.00;101205.31;5253041;28;20054;-73
2024/03/05 05:05:25;;;;;;;43.65;22.67;;;;;;;6.17;100.00;101208.81;5256591;28;20039;-73
2024/03/05 05:07:57;;;;;;;42.35;21.52;;;;;;;6.22;100.00;101201.31;5258460;28;20134;-73
2024/03/05 05:10:28;;;;;;;44.47;21.27;;;;;;;6.24;100.00;101203.84;5253185;28;20048;-73
2024/03/05 05:12:59;;;;;;;44.92;22.02;;;;;;;6.30;100.00;101203.31;5253576;28;20103;-73
2024/03/05 05:15:30;;;;;;;40.92;21.02;;;;;;;6.33;100.00;101195.06;5254634;28;20017;-73
2024/03/05 05:18:00;;;;;;;38.20;20.67;;;;;;;6.34;100.00;101204.75;5256369;28;20035;-73
2024/03/05 05:20:31;;;;;;;41.78;21.90;;;;;;;6.34;100.00;101201.25;5255498;28;20107;-73
2024/03/05 05:23:02;;;;;;;45.63;21.77;;;;;;;6.37;100.00;101195.63;5256876;28;20610;-73
2024/03/05 05:25:32;;;;;;;41.28;21.35;;;;;;;6.39;100.00;101193.69;5256619;28;20020;-73
2024/03/05 05:28:05;;;;;;;36.00;20.40;;;;;;;6.44;100.00;101199.47;5256688;28;20099;-73
2024/03/05 05:30:35;;;;;;;41.53;22.25;;;;;;;6.43;100.00;101201.31;5256059;28;20074;-73
2024/03/05 05:33:06;;;;;;;39.30;20.63;;;;;;;6.44;100.00;101196.81;5248145;28;20019;-73
2024/03/05 05:35:37;;;;;;;46.08;22.88;;;;;;;6.45;100.00;101211.84;5250186;28;20020;-73
2024/03/05 05:38:10;;;;;;;38.97;22.13;;;;;;;6.47;100.00;101207.19;5259755;28;20046;-73
2024/03/05 05:40:43;;;;;;;43.22;22.25;;;;;;;6.46;100.00;101208.19;5267712;28;20017;-73
2024/03/05 05:43:13;;;;;;;43.00;23.35;;;;;;;6.47;100.00;101204.53;5258441;28;20062;-73
2024/03/05 05:45:48;;;;;;;38.53;21.50;;;;;;;6.47;100.00;101209.88;5247808;28;20048;-73
2024/03/05 05:48:25;;;;;;;40.40;20.67;;;;;;;6.47;100.00;101216.03;5258987;28;20098;-73
2024/03/05 05:50:58;;;;;;;38.83;20.73;;;;;;;6.44;100.00;101212.81;5248773;28;20044;-73
2024/03/05 05:53:28;;;;;;;40.83;20.70;;;;;;;6.42;100.00;101212.91;5254286;28;20028;-73
2024/03/05 05:55:59;;;;;;;44.45;21.60;;;;;;;6.41;100.00;101213.91;5258572;28;20028;-73
2024/03/05 05:58:30;;;;;;;40.85;22.23;;;;;;;6.39;100.00;101217.69;5249953;28;20075;-73
2024/03/05 06:01:05;;;;;;;43.80;21.48;;;;;;;6.38;100.00;101211.50;5253273;28;20469;-73
2024/03/05 06:03:36;;;;;;;37.97;21.55;;;;;;;6.36;100.00;101213.44;5249734;28;20047;-73
2024/03/05 06:06:07;;;;;;;43.25;23.17;;;;;;;6.36;100.00;101215.28;5253298;28;20069;-73
2024/03/05 06:08:38;;;;;;;41.22;20.88;;;;;;;6.37;100.00;101223.13;5244629;28;20033;-73
2024/03/05 06:11:08;;;;;;;37.30;19.88;;;;;;;6.40;100.00;101220.22;5255351;28;20522;-73
2024/03/05 06:13:39;;;;;;;41.03;20.25;;;;;;;6.44;100.00;101218.16;5251768;28;20042;-73
2024/03/05 06:16:09;;;;;;;37.92;17.92;;;;;;;6.49;100.00;101224.75;5253518;28;20032;-73
2024/03/05 06:18:40;;;;;;;38.40;18.85;;;;;;;6.57;100.00;101226.75;5270705;28;20038;-73
2024/03/05 06:21:10;;;;;;;34.90;17.40;;;;;;;6.61;100.00;101235.34;5260794;28;20036;-73
2024/03/05 06:23:41;;;;;;;28.02;13.50;;;;;;;6.67;100.00;101234.81;5249614;28;20371;-73
2024/03/05 06:26:11;;;;;;;30.17;12.10;;;;;;;6.71;100.00;101241.59;5256384;28;20106;-73
2024/03/05 06:28:42;;;;;;;23.90;11.93;;;;;;;6.80;100.00;101245.28;5249509;28;20036;-73
2024/03/05 06:31:12;;;;;;;24.65;11.75;;;;;;;6.88;100.00;101246.31;5252960;28;20032;-73
2024/03/05 06:33:44;;;;;;;19.48;11.45;;;;;;;6.96;100.00;101249.16;5256783;28;20410;-73
2024/03/05 06:36:14;;;;;;;23.13;9.77;;;;;;;7.03;100.00;101253.94;5253812;28;20033;-73
2024/03/05 06:38:45;;;;;;;27.00;11.00;;;;;;;7.10;100.00;101252.47;5253546;28;20021;-73
2024/03/05 06:41:15;;;;;;;20.70;10.98;;;;;;;7.15;100.00;101250.22;5251608;28;20097;-73
2024/03/05 06:43:47;;;;;;;22.42;11.23;;;;;;;7.18;100.00;101249.97;5253123;28;20021;-73
2024/03/05 06:46:17;;;;;;;26.83;13.05;;;;;;;7.16;100.00;101250.09;5253281;28;20024;-73
2024/03/05 06:48:48;;;;;;;29.17;12.93;;;;;;;7.14;100.00;101251.22;5252744;28;20401;-73
2024/03/05 06:51:26;;;;;;;27.25;12.40;;;;;;;7.13;100.00;101252.16;5252987;28;20516;-73
2024/03/05 06:56:46;;;;;;;21.67;11.65;;;;;;;7.10;100.00;101258.63;5247630;28;20024;-73
2024/03/05 06:59:16;;;;;;;23.15;12.38;;;;;;;7.13;100.00;101249.50;5244397;28;20568;-73
2024/03/05 07:01:47;;;;;;;25.02;11.57;;;;;;;7.18;100.00;101253.50;5248986;28;20028;-73
2024/03/05 07:04:17;;;;;;;29.98;13.50;;;;;;;7.21;100.00;101253.19;5252994;28;20473;-73
2024/03/05 07:06:49;;;;;;;20.55;11.70;;;;;;;7.23;100.00;101256.59;5250103;28;20028;-73
2024/03/05 07:09:19;;;;;;;21.20;11.27;;;;;;;7.26;100.00;101245.63;5253119;28;20020;-73
2024/03/05 07:11:50;;;;;;;20.83;11.35;;;;;;;7.33;100.00;101253.09;5247459;28;20139;-73
2024/03/05 07:14:22;;;;;;;20.95;10.45;;;;;;;7.34;100.00;101254.81;5251746;28;20049;-73
2024/03/05 07:16:53;;;;;;;20.33;10.57;;;;;;;7.37;100.00;101244.69;5250675;28;20035;-73
2024/03/05 07:19:23;;;;;;;22.60;10.45;;;;;;;7.39;100.00;101247.25;5252237;28;20028;-73
2024/03/05 07:21:54;;;;;;;24.92;11.93;;;;;;;7.43;100.00;101252.16;5254270;28;20029;-73
2024/03/05 07:24:24;;;;;;;22.25;10.45;;;;;;;7.43;100.00;101254.84;5250283;28;20103;-73
2024/03/05 07:26:55;;;;;;;18.23;10.95;;;;;;;7.47;100.00;101264.25;5252841;28;20035;-73
2024/03/05 07:29:26;;;;;;;22.98;11.05;;;;;;;7.47;100.00;101263.41;5253466;28;20445;-73
2024/03/05 07:31:56;;;;;;;26.20;10.57;;;;;;;7.40;100.00;101270.28;5246298;28;20107;-73
2024/03/05 07:34:27;;;;;;;18.88;9.75;;;;;;;7.50;100.00;101260.47;5248432;28;20024;-73
2024/03/05 07:36:57;;;;;;;21.83;10.57;;;;;;;7.56;100.00;101273.28;5244733;28;20031;-73
2024/03/05 07:39:28;;;;;;;21.52;10.13;;;;;;;7.58;100.00;101279.34;5243668;28;20043;-74
2024/03/05 07:41:58;;;;;;;21.15;9.80;;;;;;;7.60;100.00;101280.03;5249963;28;20028;-73
2024/03/05 07:44:31;;;;;;;16.00;8.20;;;;;;;7.68;100.00;101279.34;5238986;28;20054;-73
2024/03/05 07:47:01;;;;;;;20.35;8.23;;;;;;;7.74;100.00;101276.13;5253037;28;20024;-73
2024/03/05 07:49:32;;;;;;;21.67;9.25;;;;;;;7.83;100.00;101275.31;5246484;28;20100;-73
2024/03/05 07:52:02;;;;;;;19.63;9.10;;;;;;;7.92;100.00;101270.94;5247702;28;20025;-74
2024/03/05 07:54:33;;;;;;;17.50;8.57;;;;;;;7.99;100.00;101278.28;5243917;28;20020;-73
2024/03/05 07:57:04;;;;;;;21.35;8.65;;;;;;;8.04;100.00;101273.38;5250288;28;20124;-73
2024/03/05 07:59:34;;;;;;;19.30;8.23;;;;;;;8.10;100.00;101277.31;5246652;28;20035;-73
2024/03/05 08:02:05;;;;;;;15.80;9.10;;;;;;;8.13;100.00;101281.50;5246856;28;20031;-73
2024/03/05 08:04:35;;;;;;;19.77;8.63;;;;;;;8.14;100.00;101281.41;5242303;28;20028;-73
2024/03/05 08:07:07;;;;;;;18.20;8.27;;;;;;;8.23;100.00;101285.03;5246705;28;20038;-73
2024/03/05 08:09:37;;;;;;;21.58;8.50;;;;;;;8.28;100.00;101285.44;5242476;28;20044;-73
2024/03/05 08:12:08;;;;;;;22.50;8.82;;;;;;;8.39;100.00;101285.38;5252063;28;20602;-73
2024/03/05 08:14:38;;;;;;;16.90;8.18;;;;;;;8.47;100.00;101290.00;5250121;28;20032;-73
2024/03/05 08:17:09;;;;;;;21.52;8.27;;;;;;;8.56;100.00;101291.81;5246393;28;20872;-73
2024/03/05 08:19:41;;;;;;;21.05;8.98;;;;;;;8.65;100.00;101292.81;5248706;28;20040;-73
2024/03/05 08:22:12;;;;;;;19.67;8.50;;;;;;;8.72;100.00;101291.22;5250494;28;20024;-73
2024/03/05 08:24:42;;;;;;;19.00;8.30;;;;;;;8.80;100.00;101304.75;5242029;28;20036;-73
2024/03/05 08:27:13;;;;;;;16.38;7.43;;;;;;;8.91;100.00;101296.53;5248583;28;20118;-73
2024/03/05 08:29:45;;;;;;;23.77;7.97;;;;;;;8.95;100.00;101295.28;5246625;28;20025;-73
2024/03/05 08:32:17;;;;;;;14.70;7.07;;;;;;;9.03;100.00;101303.41;5248117;28;20474;-73
2024/03/05 08:34:47;;;;;;;12.10;6.80;;;;;;;9.03;100.00;101299.88;5246362;28;20084;-73
2024/03/05 08:37:18;;;;;;;14.15;6.63;;;;;;;9.14;100.00;101306.94;5242170;28;20021;-73
2024/03/05 08:39:49;;;;;;;14.30;6.70;;;;;;;9.23;100.00;101301.50;5247519;28;20029;-73
2024/03/05 08:42:20;;;;;;;18.52;7.03;;;;;;;9.41;100.00;101303.44;5246855;28;20033;-73
2024/03/05 08:44:51;;;;;;;12.90;5.80;;;;;;;9.53;100.00;101305.75;5239291;28;20025;-74
2024/03/05 08:47:22;;;;;;;11.55;5.85;;;;;;;9.60;100.00;101311.38;5242603;28;20370;-74
2024/03/05 08:49:52;;;;;;;9.77;5.75;;;;;;;9.78;100.00;101306.91;5247060;28;20036;-74
2024/03/05 08:52:23;;;;;;;10.27;5.95;;;;;;;9.79;100.00;101307.78;5247152;28;20477;-74
2024/03/05 08:54:54;;;;;;;11.07;5.25;;;;;;;9.96;100.00;101311.47;5246162;28;20478;-74
2024/03/05 08:57:26;;;;;;;13.10;5.28;;;;;;;10.19;100.00;101311.84;5243469;28;20036;-74
2024/03/05 09:00:02;;;;;;;10.75;5.43;;;;;;;10.31;100.00;101316.88;5246819;28;20032;-74
2024/03/05 09:02:33;;;;;;;12.80;5.18;;;;;;;10.55;100.00;101308.22;5246377;28;20621;-74
2024/03/05 09:05:04;;;;;;;10.77;4.63;;;;;;;10.68;100.00;101307.81;5244681;28;20111;-74
2024/03/05 09:07:36;;;;;;;12.10;3.22;;;;;;;10.62;100.00;101311.97;5245108;28;20126;-74
2024/03/05 09:10:08;;;;;;;14.73;4.15;;;;;;;10.66;100.00;101320.53;5246672;28;20021;-74
2024/03/05 09:12:38;;;;;;;6.30;2.80;;;;;;;10.83;100.00;101322.34;5240053;28;20645;-74
2024/03/05 09:15:09;;;;;;;7.80;3.05;;;;;;;10.81;100.00;101323.50;5244723;28;20031;-73
2024/03/05 09:17:39;;;;;;;7.85;2.88;;;;;;;10.69;100.00;101312.16;5249222;28;20058;-73
2024/03/05 09:20:16;;;;;;;11.13;3.47;;;;;;;10.73;100.00;101324.28;5250601;28;20070;-71
2024/03/05 09:22:47;;;;;;;9.25;3.25;;;;;;;10.76;100.00;101325.81;5251045;28;20489;-73
2024/03/05 09:25:18;;;;;;;8.25;2.70;;;;;;;10.69;100.00;101324.75;5250420;28;20028;-73
2024/03/05 09:27:48;;;;;;;3.30;1.70;;;;;;;10.68;100.00;101323.06;5247985;28;20055;-72
2024/03/05 09:30:19;;;;;;;5.03;2.28;;;;;;;10.77;100.00;101324.81;5249682;28;20025;-73
2024/03/05 09:32:50;;;;;;;5.35;2.10;;;;;;;10.87;100.00;101321.03;5245908;28;20040;-73
2024/03/05 09:35:20;;;;;;;5.28;2.00;;;;;;;10.98;100.00;101319.94;5249774;28;20020;-72
2024/03/05 09:37:51;;;;;;;4.00;1.73;;;;;;;11.14;100.00;101322.75;5251195;28;20067;-73
2024/03/05 09:40:23;;;;;;;4.13;2.38;;;;;;;11.26;100.00;101322.47;5252786;28;20020;-73
2024/03/05 09:42:58;;;;;;;6.47;2.50;;;;;;;11.39;100.00;101315.66;5264532;28;20062;-73
2024/03/05 09:45:31;;;;;;;4.60;2.20;;;;;;;11.32;100.00;101332.56;5251699;28;20016;-73
2024/03/05 09:48:02;;;;;;;8.25;2.17;;;;;;;11.08;100.00;101325.19;5249160;28;20036;-72
2024/03/05 09:50:33;;;;;;;4.32;1.80;;;;;;;11.20;100.00;101329.31;5246281;28;20764;-73
2024/03/05 09:53:04;;;;;;;3.90;1.73;;;;;;;11.20;100.00;101328.50;5249699;28;20051;-73
2024/03/05 09:55:34;;;;;;;3.83;1.60;;;;;;;11.32;100.00;101327.19;5253652;28;20379;-73
2024/03/05 09:58:10;;;;;;;3.47;1.80;;;;;;;10.99;100.00;101334.19;5247398;28;20161;-73
2024/03/05 10:00:41;;;;;;;4.75;2.10;;;;;;;10.93;100.00;101333.00;5248140;28;20093;-72
2024/03/05 10:03:12;;;;;;;3.55;2.00;;;;;;;10.83;100.00;101337.59;5249699;28;20024;-73
2024/03/05 10:05:42;;;;;;;5.88;1.42;;;;;;;10.88;100.00;101330.78;5245397;28;20500;-73
2024/03/05 10:08:14;;;;;;;5.93;1.98;;;;;;;10.69;100.00;101336.31;5249352;28;20482;-72
2024/03/05 10:10:46;;;;;;;2.58;1.60;;;;;;;10.88;100.00;101335.31;5247802;28;20379;-72
2024/03/05 10:13:17;;;;;;;2.03;1.65;;;;;;;10.81;100.00;101337.78;5248626;28;20055;-73
2024/03/05 10:15:47;;;;;;;6.82;1.63;;;;;;;10.40;100.00;101338.44;5246487;28;20103;-73
2024/03/05 10:18:30;;;;;;;3.47;1.45;;;;;;;10.43;100.00;101352.34;5246210;28;20434;-73
2024/03/05 10:21:15;;;;;;;3.38;1.73;;;;;;;10.59;100.00;101348.97;5250813;28;20028;-73
2024/03/05 10:23:58;;;;;;;2.42;1.58;;;;;;;10.61;100.00;101344.31;5244348;28;20043;-73
2024/03/05 10:26:30;;;;;;;3.47;1.50;;;;;;;10.82;100.00;101352.88;5246947;28;20417;-74
2024/03/05 10:29:08;;;;;;;4.40;1.80;;;;;;;10.50;100.00;101356.13;5246445;28;20031;-74
2024/03/05 10:31:42;;;;;;;3.25;1.83;;;;;;;10.24;100.00;101352.50;5243899;28;20467;-73
2024/03/05 10:34:18;;;;;;;5.80;2.03;;;;;;;10.35;100.00;101361.19;5249941;28;20032;-74
2024/03/05 10:36:51;;;;;;;4.28;2.22;;;;;;;10.50;100.00;101357.97;5247311;28;20033;-74
2024/03/05 10:39:22;;;;;;;2.25;1.83;;;;;;;10.47;100.00;101361.78;5245918;28;20062;-74
2024/03/05 10:41:53;;;;;;;2.67;1.48;;;;;;;10.50;100.00;101358.81;5251098;28;20017;-74
2024/03/05 10:44:25;;;;;;;5.32;2.28;;;;;;;10.28;100.00;101359.25;5246530;28;20520;-74
2024/03/05 10:46:56;;;;;;;3.60;2.03;;;;;;;10.13;100.00;101367.78;5247679;28;20040;-73
2024/03/05 10:49:26;;;;;;;3.75;1.63;;;;;;;10.25;100.00;101373.81;5244519;28;20024;-74
2024/03/05 10:51:59;;;;;;;2.38;1.27;;;;;;;10.09;100.00;101369.09;5263646;28;20028;-74
2024/03/05 10:54:31;;;;;;;2.55;1.15;;;;;;;10.00;100.00;101369.97;5246560;28;20034;-73
2024/03/05 10:57:02;;;;;;;3.08;1.30;;;;;;;9.99;100.00;101379.03;5250097;28;20624;-74
2024/03/05 10:59:52;;;;;;;2.13;1.42;;;;;;;9.93;100.00;101379.59;5246520;28;20032;-74
2024/03/05 11:02:27;;;;;;;1.42;1.05;;;;;;;9.94;100.00;101378.63;5245488;28;20094;-74
2024/03/05 11:05:01;;;;;;;3.90;1.20;;;;;;;10.04;100.00;101379.41;5248300;28;20027;-74
2024/03/05 11:07:33;;;;;;;3.00;1.20;;;;;;;10.00;100.00;101378.03;5248987;28;20038;-74
2024/03/05 11:10:05;;;;;;;3.30;1.20;;;;;;;9.90;100.00;101376.38;5250508;28;20099;-74
2024/03/05 11:12:35;;;;;;;2.13;1.15;;;;;;;10.01;100.00;101373.50;5249723;28;20020;-75
2024/03/05 11:15:12;;;;;;;2.22;1.17;;;;;;;10.22;100.00;101373.22;5252379;28;20493;-75
2024/03/05 11:17:42;;;;;;;2.22;1.20;;;;;;;10.26;100.00;101374.66;5246732;28;20041;-74
2024/03/05 11:20:40;;;;;;;3.10;0.80;;;;;;;10.42;100.00;101380.19;5249259;28;20021;-74
2024/03/05 11:23:13;;;;;;;2.22;0.80;;;;;;;10.37;100.00;101372.59;5248872;28;20025;-75
2024/03/05 11:25:51;;;;;;;1.60;0.70;;;;;;;10.34;100.00;101372.03;5253223;28;20069;-74
2024/03/05 11:28:22;;;;;;;2.45;0.50;;;;;;;10.52;100.00;101380.09;5246994;28;20028;-75
2024/03/05 11:31:09;;;;;;;0.95;0.68;;;;;;;10.39;100.00;101372.44;5251258;28;20023;-74
2024/03/05 11:33:40;;;;;;;2.08;0.90;;;;;;;10.45;100.00;101369.16;5249023;28;20494;-74
2024/03/05 11:36:22;;;;;;;2.00;0.95;;;;;;;10.65;100.00;101377.91;5252017;28;20111;-73